sensor_id;sensor_type;location;lat;lon;timestamp;P1;durP1;ratioP1;P2;durP2;ratioP2
18316;SDS011;9284;52.298;21.164;2023-09-19T00:00:57;14.93;;;10.23;;
18316;SDS011;9284;52.298;21.164;2023-09-19T00:03:26;13.48;;;9.88;;
18316;SDS011;9284;52.298;21.164;2023-09-19T00:05:55;17.23;;;10.98;;
18316;SDS011;9284;52.298;21.164;2023-09-19T00:08:26;17.77;;;10.57;;
18316;SDS011;9284;52.298;21.164;2023-09-19T00:10:54;15.43;;;10.80;;
18316;SDS011;9284;52.298;21.164;2023-09-19T00:13:25;17.55;;;11.30;;
18316;SDS011;9284;52.298;21.164;2023-09-19T00:15:56;18.38;;;10.82;;
18316;SDS011;9284;52.298;21.164;2023-09-19T00:18:25;15.90;;;10.93;;
18316;SDS011;9284;52.298;21.164;2023-09-19T00:20:56;16.98;;;10.77;;
18316;SDS011;9284;52.298;21.164;2023-09-19T00:23:25;15.55;;;10.90;;
18316;SDS011;9284;52.298;21.164;2023-09-19T00:25:54;14.98;;;10.43;;
18316;SDS011;9284;52.298;21.164;2023-09-19T00:28:27;15.15;;;11.15;;
18316;SDS011;9284;52.298;21.164;2023-09-19T00:30:59;22.45;;;11.18;;
18316;SDS011;9284;52.298;21.164;2023-09-19T00:33:30;14.98;;;10.93;;
18316;SDS011;9284;52.298;21.164;2023-09-19T00:35:59;15.07;;;10.00;;
18316;SDS011;9284;52.298;21.164;2023-09-19T00:38:30;17.27;;;11.88;;
18316;SDS011;9284;52.298;21.164;2023-09-19T00:40:59;15.55;;;11.02;;
18316;SDS011;9284;52.298;21.164;2023-09-19T00:43:27;15.15;;;10.27;;
18316;SDS011;9284;52.298;21.164;2023-09-19T00:45:56;16.75;;;10.95;;
18316;SDS011;9284;52.298;21.164;2023-09-19T00:48:29;17.90;;;11.60;;
18316;SDS011;9284;52.298;21.164;2023-09-19T00:50:59;16.85;;;11.60;;
18316;SDS011;9284;52.298;21.164;2023-09-19T00:53:31;15.73;;;10.60;;
18316;SDS011;9284;52.298;21.164;2023-09-19T00:56:01;16.13;;;11.15;;
18316;SDS011;9284;52.298;21.164;2023-09-19T00:58:31;17.15;;;10.63;;
18316;SDS011;9284;52.298;21.164;2023-09-19T01:01:02;16.08;;;11.23;;
18316;SDS011;9284;52.298;21.164;2023-09-19T01:03:36;17.00;;;11.27;;
18316;SDS011;9284;52.298;21.164;2023-09-19T01:06:05;17.05;;;10.65;;
18316;SDS011;9284;52.298;21.164;2023-09-19T01:08:38;16.33;;;11.10;;
18316;SDS011;9284;52.298;21.164;2023-09-19T01:11:09;14.85;;;11.05;;
18316;SDS011;9284;52.298;21.164;2023-09-19T01:13:44;15.75;;;11.07;;
18316;SDS011;9284;52.298;21.164;2023-09-19T01:16:28;18.27;;;10.43;;
18316;SDS011;9284;52.298;21.164;2023-09-19T01:22:05;13.85;;;10.98;;
18316;SDS011;9284;52.298;21.164;2023-09-19T01:24:54;15.63;;;10.77;;
18316;SDS011;9284;52.298;21.164;2023-09-19T01:27:56;16.45;;;11.18;;
18316;SDS011;9284;52.298;21.164;2023-09-19T01:30:43;19.45;;;10.95;;
18316;SDS011;9284;52.298;21.164;2023-09-19T01:33:13;17.00;;;12.25;;
18316;SDS011;9284;52.298;21.164;2023-09-19T01:35:43;16.80;;;10.40;;
18316;SDS011;9284;52.298;21.164;2023-09-19T01:38:11;13.45;;;10.45;;
18316;SDS011;9284;52.298;21.164;2023-09-19T01:40:41;17.00;;;11.57;;
18316;SDS011;9284;52.298;21.164;2023-09-19T01:43:12;16.02;;;11.63;;
18316;SDS011;9284;52.298;21.164;2023-09-19T01:45:57;17.45;;;11.57;;
18316;SDS011;9284;52.298;21.164;2023-09-19T01:48:34;16.33;;;10.68;;
18316;SDS011;9284;52.298;21.164;2023-09-19T01:51:14;15.02;;;10.63;;
18316;SDS011;9284;52.298;21.164;2023-09-19T01:53:53;16.08;;;10.93;;
18316;SDS011;9284;52.298;21.164;2023-09-19T01:56:31;16.17;;;10.93;;
18316;SDS011;9284;52.298;21.164;2023-09-19T01:59:05;15.88;;;11.27;;
18316;SDS011;9284;52.298;21.164;2023-09-19T02:01:39;15.48;;;11.35;;
18316;SDS011;9284;52.298;21.164;2023-09-19T02:04:11;17.02;;;11.52;;
18316;SDS011;9284;52.298;21.164;2023-09-19T02:06:40;17.15;;;11.32;;
18316;SDS011;9284;52.298;21.164;2023-09-19T02:09:08;16.25;;;11.35;;
18316;SDS011;9284;52.298;21.164;2023-09-19T02:11:37;15.98;;;10.90;;
18316;SDS011;9284;52.298;21.164;2023-09-19T02:14:05;17.38;;;10.95;;
18316;SDS011;9284;52.298;21.164;2023-09-19T02:16:35;16.42;;;11.10;;
18316;SDS011;9284;52.298;21.164;2023-09-19T02:19:05;16.67;;;12.35;;
18316;SDS011;9284;52.298;21.164;2023-09-19T02:21:34;16.83;;;11.23;;
18316;SDS011;9284;52.298;21.164;2023-09-19T02:24:03;13.02;;;10.63;;
18316;SDS011;9284;52.298;21.164;2023-09-19T02:26:32;17.55;;;11.15;;
18316;SDS011;9284;52.298;21.164;2023-09-19T02:29:05;15.63;;;11.82;;
18316;SDS011;9284;52.298;21.164;2023-09-19T02:31:34;18.35;;;10.80;;
18316;SDS011;9284;52.298;21.164;2023-09-19T02:34:03;15.98;;;11.45;;
18316;SDS011;9284;52.298;21.164;2023-09-19T02:36:34;18.38;;;12.20;;
18316;SDS011;9284;52.298;21.164;2023-09-19T02:39:03;16.00;;;11.98;;
18316;SDS011;9284;52.298;21.164;2023-09-19T02:41:34;15.35;;;11.05;;
18316;SDS011;9284;52.298;21.164;2023-09-19T02:44:03;15.80;;;11.50;;
18316;SDS011;9284;52.298;21.164;2023-09-19T02:46:34;16.70;;;11.48;;
18316;SDS011;9284;52.298;21.164;2023-09-19T02:49:03;19.02;;;11.20;;
18316;SDS011;9284;52.298;21.164;2023-09-19T02:51:34;14.52;;;11.18;;
18316;SDS011;9284;52.298;21.164;2023-09-19T02:54:03;20.35;;;10.90;;
18316;SDS011;9284;52.298;21.164;2023-09-19T02:56:33;17.50;;;11.80;;
18316;SDS011;9284;52.298;21.164;2023-09-19T02:59:02;16.65;;;11.63;;
18316;SDS011;9284;52.298;21.164;2023-09-19T03:01:31;19.55;;;12.45;;
18316;SDS011;9284;52.298;21.164;2023-09-19T03:04:00;16.80;;;12.18;;
18316;SDS011;9284;52.298;21.164;2023-09-19T03:06:29;15.75;;;11.68;;
18316;SDS011;9284;52.298;21.164;2023-09-19T03:08:59;17.20;;;11.60;;
18316;SDS011;9284;52.298;21.164;2023-09-19T03:11:29;17.10;;;11.55;;
18316;SDS011;9284;52.298;21.164;2023-09-19T03:13:58;19.25;;;11.45;;
18316;SDS011;9284;52.298;21.164;2023-09-19T03:16:26;15.77;;;11.48;;
18316;SDS011;9284;52.298;21.164;2023-09-19T03:18:57;18.13;;;12.07;;
18316;SDS011;9284;52.298;21.164;2023-09-19T03:21:28;17.75;;;11.73;;
18316;SDS011;9284;52.298;21.164;2023-09-19T03:23:57;17.20;;;10.95;;
18316;SDS011;9284;52.298;21.164;2023-09-19T03:26:27;16.70;;;11.25;;
18316;SDS011;9284;52.298;21.164;2023-09-19T03:28:56;18.42;;;11.90;;
18316;SDS011;9284;52.298;21.164;2023-09-19T03:31:24;17.70;;;12.18;;
18316;SDS011;9284;52.298;21.164;2023-09-19T03:33:53;18.80;;;12.00;;
18316;SDS011;9284;52.298;21.164;2023-09-19T03:36:21;16.83;;;12.05;;
18316;SDS011;9284;52.298;21.164;2023-09-19T03:38:50;20.20;;;12.07;;
18316;SDS011;9284;52.298;21.164;2023-09-19T03:41:18;17.65;;;11.88;;
18316;SDS011;9284;52.298;21.164;2023-09-19T03:43:48;19.63;;;12.10;;
18316;SDS011;9284;52.298;21.164;2023-09-19T03:46:17;16.67;;;11.52;;
18316;SDS011;9284;52.298;21.164;2023-09-19T03:48:46;16.15;;;11.23;;
18316;SDS011;9284;52.298;21.164;2023-09-19T03:51:14;16.23;;;11.65;;
18316;SDS011;9284;52.298;21.164;2023-09-19T03:53:42;15.95;;;10.63;;
18316;SDS011;9284;52.298;21.164;2023-09-19T03:56:11;15.00;;;11.45;;
18316;SDS011;9284;52.298;21.164;2023-09-19T03:58:39;15.85;;;12.27;;
18316;SDS011;9284;52.298;21.164;2023-09-19T04:01:09;18.60;;;11.55;;
18316;SDS011;9284;52.298;21.164;2023-09-19T04:03:39;15.80;;;11.15;;
18316;SDS011;9284;52.298;21.164;2023-09-19T04:06:14;17.92;;;12.35;;
18316;SDS011;9284;52.298;21.164;2023-09-19T04:08:43;16.10;;;11.23;;
18316;SDS011;9284;52.298;21.164;2023-09-19T04:11:12;21.15;;;12.32;;
18316;SDS011;9284;52.298;21.164;2023-09-19T04:13:41;16.70;;;11.98;;
18316;SDS011;9284;52.298;21.164;2023-09-19T04:16:11;15.32;;;11.90;;
18316;SDS011;9284;52.298;21.164;2023-09-19T04:18:40;15.23;;;11.48;;
18316;SDS011;9284;52.298;21.164;2023-09-19T04:21:08;20.40;;;11.63;;
18316;SDS011;9284;52.298;21.164;2023-09-19T04:23:37;16.92;;;11.77;;
18316;SDS011;9284;52.298;21.164;2023-09-19T04:26:06;16.30;;;10.98;;
18316;SDS011;9284;52.298;21.164;2023-09-19T04:28:34;16.42;;;11.10;;
18316;SDS011;9284;52.298;21.164;2023-09-19T04:31:05;18.65;;;11.27;;
18316;SDS011;9284;52.298;21.164;2023-09-19T04:33:36;15.38;;;11.30;;
18316;SDS011;9284;52.298;21.164;2023-09-19T04:36:05;16.55;;;11.85;;
18316;SDS011;9284;52.298;21.164;2023-09-19T04:38:54;19.40;;;11.55;;
18316;SDS011;9284;52.298;21.164;2023-09-19T04:41:22;18.92;;;12.18;;
18316;SDS011;9284;52.298;21.164;2023-09-19T04:43:51;18.23;;;11.80;;
18316;SDS011;9284;52.298;21.164;2023-09-19T04:46:19;19.70;;;11.63;;
18316;SDS011;9284;52.298;21.164;2023-09-19T04:48:49;16.55;;;11.57;;
18316;SDS011;9284;52.298;21.164;2023-09-19T04:51:18;20.05;;;11.95;;
18316;SDS011;9284;52.298;21.164;2023-09-19T04:53:47;17.98;;;11.80;;
18316;SDS011;9284;52.298;21.164;2023-09-19T04:56:15;15.80;;;11.45;;
18316;SDS011;9284;52.298;21.164;2023-09-19T04:58:44;16.98;;;11.85;;
18316;SDS011;9284;52.298;21.164;2023-09-19T05:01:12;17.05;;;11.50;;
18316;SDS011;9284;52.298;21.164;2023-09-19T05:03:42;16.52;;;11.20;;
18316;SDS011;9284;52.298;21.164;2023-09-19T05:06:12;16.65;;;11.05;;
18316;SDS011;9284;52.298;21.164;2023-09-19T05:08:41;18.60;;;11.23;;
18316;SDS011;9284;52.298;21.164;2023-09-19T05:11:09;14.35;;;10.73;;
18316;SDS011;9284;52.298;21.164;2023-09-19T05:13:38;16.15;;;11.65;;
18316;SDS011;9284;52.298;21.164;2023-09-19T05:16:06;17.63;;;10.77;;
18316;SDS011;9284;52.298;21.164;2023-09-19T05:18:36;18.00;;;11.10;;
18316;SDS011;9284;52.298;21.164;2023-09-19T05:21:05;14.65;;;10.57;;
18316;SDS011;9284;52.298;21.164;2023-09-19T05:23:35;15.18;;;10.35;;
18316;SDS011;9284;52.298;21.164;2023-09-19T05:26:04;14.38;;;9.55;;
18316;SDS011;9284;52.298;21.164;2023-09-19T05:28:33;14.07;;;10.02;;
18316;SDS011;9284;52.298;21.164;2023-09-19T05:31:02;17.00;;;9.48;;
18316;SDS011;9284;52.298;21.164;2023-09-19T05:33:30;15.43;;;9.90;;
18316;SDS011;9284;52.298;21.164;2023-09-19T05:36:00;17.05;;;9.82;;
18316;SDS011;9284;52.298;21.164;2023-09-19T05:38:28;14.82;;;10.50;;
18316;SDS011;9284;52.298;21.164;2023-09-19T05:40:59;15.60;;;9.98;;
18316;SDS011;9284;52.298;21.164;2023-09-19T05:43:27;17.02;;;9.98;;
18316;SDS011;9284;52.298;21.164;2023-09-19T05:45:56;14.85;;;10.15;;
18316;SDS011;9284;52.298;21.164;2023-09-19T05:48:27;15.07;;;9.05;;
18316;SDS011;9284;52.298;21.164;2023-09-19T05:50:55;13.38;;;8.93;;
18316;SDS011;9284;52.298;21.164;2023-09-19T05:53:23;15.82;;;10.07;;
18316;SDS011;9284;52.298;21.164;2023-09-19T05:55:52;17.55;;;10.48;;
18316;SDS011;9284;52.298;21.164;2023-09-19T05:58:23;18.00;;;9.75;;
18316;SDS011;9284;52.298;21.164;2023-09-19T06:00:52;15.07;;;9.60;;
18316;SDS011;9284;52.298;21.164;2023-09-19T06:03:22;16.77;;;9.57;;
18316;SDS011;9284;52.298;21.164;2023-09-19T06:05:51;12.95;;;9.05;;
18316;SDS011;9284;52.298;21.164;2023-09-19T06:08:23;13.07;;;9.60;;
18316;SDS011;9284;52.298;21.164;2023-09-19T06:10:52;15.15;;;9.20;;
18316;SDS011;9284;52.298;21.164;2023-09-19T06:13:21;15.57;;;9.23;;
18316;SDS011;9284;52.298;21.164;2023-09-19T06:15:53;15.05;;;9.38;;
18316;SDS011;9284;52.298;21.164;2023-09-19T06:18:23;13.27;;;9.52;;
18316;SDS011;9284;52.298;21.164;2023-09-19T06:20:53;18.70;;;9.57;;
18316;SDS011;9284;52.298;21.164;2023-09-19T06:23:22;17.42;;;9.75;;
18316;SDS011;9284;52.298;21.164;2023-09-19T06:25:52;21.73;;;11.55;;
18316;SDS011;9284;52.298;21.164;2023-09-19T06:28:21;27.23;;;11.70;;
18316;SDS011;9284;52.298;21.164;2023-09-19T06:30:53;23.33;;;12.52;;
18316;SDS011;9284;52.298;21.164;2023-09-19T06:33:23;16.50;;;10.20;;
18316;SDS011;9284;52.298;21.164;2023-09-19T06:35:55;11.77;;;8.88;;
18316;SDS011;9284;52.298;21.164;2023-09-19T06:38:26;14.90;;;8.95;;
18316;SDS011;9284;52.298;21.164;2023-09-19T06:40:55;12.82;;;8.75;;
18316;SDS011;9284;52.298;21.164;2023-09-19T06:43:24;10.95;;;8.65;;
18316;SDS011;9284;52.298;21.164;2023-09-19T06:45:54;12.25;;;8.85;;
18316;SDS011;9284;52.298;21.164;2023-09-19T06:48:22;16.88;;;9.32;;
18316;SDS011;9284;52.298;21.164;2023-09-19T06:50:53;11.80;;;8.52;;
18316;SDS011;9284;52.298;21.164;2023-09-19T06:53:22;12.75;;;8.20;;
18316;SDS011;9284;52.298;21.164;2023-09-19T06:55:51;12.23;;;8.10;;
18316;SDS011;9284;52.298;21.164;2023-09-19T06:58:19;13.25;;;8.27;;
18316;SDS011;9284;52.298;21.164;2023-09-19T07:00:48;13.70;;;8.52;;
18316;SDS011;9284;52.298;21.164;2023-09-19T07:03:18;15.75;;;8.73;;
18316;SDS011;9284;52.298;21.164;2023-09-19T07:05:48;15.85;;;9.05;;
18316;SDS011;9284;52.298;21.164;2023-09-19T07:08:16;14.50;;;8.65;;
18316;SDS011;9284;52.298;21.164;2023-09-19T07:10:46;15.25;;;8.70;;
18316;SDS011;9284;52.298;21.164;2023-09-19T07:13:16;11.98;;;8.13;;
18316;SDS011;9284;52.298;21.164;2023-09-19T07:15:45;12.60;;;8.52;;
18316;SDS011;9284;52.298;21.164;2023-09-19T07:18:18;17.33;;;9.25;;
18316;SDS011;9284;52.298;21.164;2023-09-19T07:20:47;12.40;;;8.57;;
18316;SDS011;9284;52.298;21.164;2023-09-19T07:23:17;12.82;;;8.38;;
18316;SDS011;9284;52.298;21.164;2023-09-19T07:25:47;13.43;;;8.40;;
18316;SDS011;9284;52.298;21.164;2023-09-19T07:28:16;15.13;;;9.25;;
18316;SDS011;9284;52.298;21.164;2023-09-19T07:30:45;12.88;;;8.85;;
18316;SDS011;9284;52.298;21.164;2023-09-19T07:33:14;16.13;;;9.18;;
18316;SDS011;9284;52.298;21.164;2023-09-19T07:35:46;13.57;;;9.25;;
18316;SDS011;9284;52.298;21.164;2023-09-19T07:38:14;17.13;;;9.80;;
18316;SDS011;9284;52.298;21.164;2023-09-19T07:40:43;16.92;;;10.23;;
18316;SDS011;9284;52.298;21.164;2023-09-19T07:43:11;15.27;;;10.07;;
18316;SDS011;9284;52.298;21.164;2023-09-19T07:45:40;15.35;;;10.18;;
18316;SDS011;9284;52.298;21.164;2023-09-19T07:48:08;16.20;;;10.52;;
18316;SDS011;9284;52.298;21.164;2023-09-19T07:50:41;16.73;;;10.27;;
18316;SDS011;9284;52.298;21.164;2023-09-19T07:53:12;15.02;;;11.13;;
18316;SDS011;9284;52.298;21.164;2023-09-19T07:55:42;17.02;;;11.15;;
18316;SDS011;9284;52.298;21.164;2023-09-19T07:58:15;17.77;;;10.32;;
18316;SDS011;9284;52.298;21.164;2023-09-19T08:00:43;16.13;;;11.40;;
18316;SDS011;9284;52.298;21.164;2023-09-19T08:03:12;14.15;;;10.70;;
18316;SDS011;9284;52.298;21.164;2023-09-19T08:05:44;13.57;;;10.43;;
18316;SDS011;9284;52.298;21.164;2023-09-19T08:08:14;16.75;;;11.27;;
18316;SDS011;9284;52.298;21.164;2023-09-19T08:10:42;16.25;;;11.60;;
18316;SDS011;9284;52.298;21.164;2023-09-19T08:13:13;15.57;;;10.88;;
18316;SDS011;9284;52.298;21.164;2023-09-19T08:15:44;15.25;;;11.65;;
18316;SDS011;9284;52.298;21.164;2023-09-19T08:18:13;16.23;;;12.10;;
18316;SDS011;9284;52.298;21.164;2023-09-19T08:20:42;14.63;;;11.10;;
18316;SDS011;9284;52.298;21.164;2023-09-19T08:23:14;18.00;;;11.68;;
18316;SDS011;9284;52.298;21.164;2023-09-19T08:25:44;18.48;;;12.30;;
18316;SDS011;9284;52.298;21.164;2023-09-19T08:28:13;14.50;;;10.93;;
18316;SDS011;9284;52.298;21.164;2023-09-19T08:30:45;18.77;;;11.68;;
18316;SDS011;9284;52.298;21.164;2023-09-19T08:33:13;21.90;;;11.23;;
18316;SDS011;9284;52.298;21.164;2023-09-19T08:35:42;14.65;;;10.95;;
18316;SDS011;9284;52.298;21.164;2023-09-19T08:38:12;19.83;;;11.85;;
18316;SDS011;9284;52.298;21.164;2023-09-19T08:40:42;15.93;;;11.35;;
18316;SDS011;9284;52.298;21.164;2023-09-19T08:43:10;18.33;;;11.63;;
18316;SDS011;9284;52.298;21.164;2023-09-19T08:45:39;15.52;;;11.50;;
18316;SDS011;9284;52.298;21.164;2023-09-19T08:50:56;16.85;;;11.07;;
18316;SDS011;9284;52.298;21.164;2023-09-19T08:53:34;21.65;;;11.68;;
18316;SDS011;9284;52.298;21.164;2023-09-19T08:56:09;17.83;;;11.68;;
18316;SDS011;9284;52.298;21.164;2023-09-19T08:58:42;17.20;;;11.80;;
18316;SDS011;9284;52.298;21.164;2023-09-19T09:01:15;17.83;;;12.50;;
18316;SDS011;9284;52.298;21.164;2023-09-19T09:03:52;15.88;;;12.77;;
18316;SDS011;9284;52.298;21.164;2023-09-19T09:06:22;15.05;;;12.18;;
18316;SDS011;9284;52.298;21.164;2023-09-19T09:08:52;20.17;;;12.25;;
18316;SDS011;9284;52.298;21.164;2023-09-19T09:11:21;14.50;;;11.45;;
18316;SDS011;9284;52.298;21.164;2023-09-19T09:13:51;15.60;;;10.90;;
18316;SDS011;9284;52.298;21.164;2023-09-19T09:16:20;18.73;;;11.75;;
18316;SDS011;9284;52.298;21.164;2023-09-19T09:18:52;16.63;;;10.75;;
18316;SDS011;9284;52.298;21.164;2023-09-19T09:21:21;13.98;;;9.68;;
18316;SDS011;9284;52.298;21.164;2023-09-19T09:23:53;20.98;;;11.80;;
18316;SDS011;9284;52.298;21.164;2023-09-19T09:29:09;14.77;;;10.23;;
18316;SDS011;9284;52.298;21.164;2023-09-19T09:31:39;14.95;;;10.38;;
18316;SDS011;9284;52.298;21.164;2023-09-19T09:34:09;15.48;;;10.68;;
18316;SDS011;9284;52.298;21.164;2023-09-19T09:36:40;16.52;;;11.02;;
18316;SDS011;9284;52.298;21.164;2023-09-19T09:39:10;17.50;;;10.77;;
18316;SDS011;9284;52.298;21.164;2023-09-19T09:41:51;13.57;;;9.88;;
18316;SDS011;9284;52.298;21.164;2023-09-19T09:44:20;15.80;;;10.68;;
18316;SDS011;9284;52.298;21.164;2023-09-19T09:46:48;14.20;;;10.30;;
18316;SDS011;9284;52.298;21.164;2023-09-19T09:49:47;15.88;;;10.43;;
18316;SDS011;9284;52.298;21.164;2023-09-19T09:52:21;13.85;;;10.48;;
18316;SDS011;9284;52.298;21.164;2023-09-19T09:54:59;17.80;;;11.43;;
18316;SDS011;9284;52.298;21.164;2023-09-19T09:57:32;17.17;;;11.55;;
18316;SDS011;9284;52.298;21.164;2023-09-19T10:00:02;14.80;;;11.23;;
18316;SDS011;9284;52.298;21.164;2023-09-19T10:02:47;16.85;;;12.15;;
18316;SDS011;9284;52.298;21.164;2023-09-19T10:05:16;22.10;;;13.02;;
18316;SDS011;9284;52.298;21.164;2023-09-19T10:07:59;21.50;;;14.23;;
18316;SDS011;9284;52.298;21.164;2023-09-19T10:10:41;18.40;;;12.45;;
18316;SDS011;9284;52.298;21.164;2023-09-19T10:13:21;20.77;;;12.48;;
18316;SDS011;9284;52.298;21.164;2023-09-19T10:15:56;20.85;;;13.05;;
18316;SDS011;9284;52.298;21.164;2023-09-19T10:18:31;17.83;;;12.20;;
18316;SDS011;9284;52.298;21.164;2023-09-19T10:21:06;17.80;;;11.48;;
18316;SDS011;9284;52.298;21.164;2023-09-19T10:23:37;19.75;;;12.15;;
18316;SDS011;9284;52.298;21.164;2023-09-19T10:26:11;28.50;;;14.20;;
18316;SDS011;9284;52.298;21.164;2023-09-19T10:28:45;24.83;;;13.85;;
18316;SDS011;9284;52.298;21.164;2023-09-19T10:31:17;25.10;;;13.82;;
18316;SDS011;9284;52.298;21.164;2023-09-19T10:33:47;21.20;;;13.70;;
18316;SDS011;9284;52.298;21.164;2023-09-19T10:36:17;23.90;;;13.95;;
18316;SDS011;9284;52.298;21.164;2023-09-19T10:38:47;23.40;;;13.93;;
18316;SDS011;9284;52.298;21.164;2023-09-19T10:41:21;26.02;;;14.00;;
18316;SDS011;9284;52.298;21.164;2023-09-19T10:43:51;27.05;;;15.00;;
18316;SDS011;9284;52.298;21.164;2023-09-19T10:46:21;27.23;;;14.93;;
18316;SDS011;9284;52.298;21.164;2023-09-19T10:48:52;21.73;;;14.07;;
18316;SDS011;9284;52.298;21.164;2023-09-19T10:51:21;25.35;;;15.57;;
18316;SDS011;9284;52.298;21.164;2023-09-19T10:53:55;24.20;;;14.43;;
18316;SDS011;9284;52.298;21.164;2023-09-19T10:56:32;19.33;;;12.77;;
18316;SDS011;9284;52.298;21.164;2023-09-19T10:59:05;21.63;;;13.48;;
18316;SDS011;9284;52.298;21.164;2023-09-19T11:01:42;21.75;;;13.20;;
18316;SDS011;9284;52.298;21.164;2023-09-19T11:04:21;19.77;;;11.88;;
18316;SDS011;9284;52.298;21.164;2023-09-19T11:07:01;19.00;;;12.27;;
18316;SDS011;9284;52.298;21.164;2023-09-19T11:09:43;24.58;;;13.00;;
18316;SDS011;9284;52.298;21.164;2023-09-19T11:21:38;14.15;;;11.07;;
18316;SDS011;9284;52.298;21.164;2023-09-19T11:24:27;17.63;;;11.10;;
18316;SDS011;9284;52.298;21.164;2023-09-19T11:27:09;16.98;;;11.30;;
18316;SDS011;9284;52.298;21.164;2023-09-19T11:29:45;14.73;;;10.43;;
18316;SDS011;9284;52.298;21.164;2023-09-19T11:32:15;15.70;;;10.55;;
18316;SDS011;9284;52.298;21.164;2023-09-19T11:34:48;17.70;;;10.50;;
18316;SDS011;9284;52.298;21.164;2023-09-19T11:40:38;16.00;;;11.32;;
18316;SDS011;9284;52.298;21.164;2023-09-19T11:46:04;15.95;;;11.45;;
18316;SDS011;9284;52.298;21.164;2023-09-19T11:48:40;19.05;;;12.63;;
18316;SDS011;9284;52.298;21.164;2023-09-19T11:51:13;21.33;;;12.85;;
18316;SDS011;9284;52.298;21.164;2023-09-19T11:53:49;18.85;;;12.38;;
18316;SDS011;9284;52.298;21.164;2023-09-19T11:56:19;17.20;;;12.60;;
18316;SDS011;9284;52.298;21.164;2023-09-19T11:58:48;19.15;;;12.55;;
18316;SDS011;9284;52.298;21.164;2023-09-19T12:01:21;17.65;;;12.57;;
18316;SDS011;9284;52.298;21.164;2023-09-19T12:03:53;17.75;;;12.90;;
18316;SDS011;9284;52.298;21.164;2023-09-19T12:06:25;17.13;;;11.60;;
18316;SDS011;9284;52.298;21.164;2023-09-19T12:08:56;13.30;;;9.45;;
18316;SDS011;9284;52.298;21.164;2023-09-19T12:11:27;13.30;;;9.45;;
18316;SDS011;9284;52.298;21.164;2023-09-19T12:14:01;16.80;;;9.48;;
18316;SDS011;9284;52.298;21.164;2023-09-19T12:16:31;13.10;;;9.50;;
18316;SDS011;9284;52.298;21.164;2023-09-19T12:21:57;16.00;;;10.02;;
18316;SDS011;9284;52.298;21.164;2023-09-19T12:24:31;14.75;;;9.73;;
18316;SDS011;9284;52.298;21.164;2023-09-19T12:27:04;16.35;;;9.38;;
18316;SDS011;9284;52.298;21.164;2023-09-19T12:29:41;15.43;;;9.88;;
18316;SDS011;9284;52.298;21.164;2023-09-19T12:32:11;15.15;;;9.50;;
18316;SDS011;9284;52.298;21.164;2023-09-19T12:34:41;11.57;;;8.88;;
18316;SDS011;9284;52.298;21.164;2023-09-19T12:37:11;12.98;;;9.32;;
18316;SDS011;9284;52.298;21.164;2023-09-19T12:39:48;13.98;;;9.68;;
18316;SDS011;9284;52.298;21.164;2023-09-19T12:42:18;11.52;;;8.40;;
18316;SDS011;9284;52.298;21.164;2023-09-19T12:44:48;11.85;;;8.27;;
18316;SDS011;9284;52.298;21.164;2023-09-19T12:47:22;12.35;;;8.73;;
18316;SDS011;9284;52.298;21.164;2023-09-19T12:50:10;11.73;;;9.00;;
18316;SDS011;9284;52.298;21.164;2023-09-19T12:52:46;12.30;;;8.32;;
18316;SDS011;9284;52.298;21.164;2023-09-19T12:55:19;12.70;;;8.40;;
18316;SDS011;9284;52.298;21.164;2023-09-19T12:57:59;13.88;;;9.35;;
18316;SDS011;9284;52.298;21.164;2023-09-19T13:00:37;11.00;;;8.80;;
18316;SDS011;9284;52.298;21.164;2023-09-19T13:03:09;14.70;;;8.95;;
18316;SDS011;9284;52.298;21.164;2023-09-19T13:05:53;13.50;;;9.80;;
18316;SDS011;9284;52.298;21.164;2023-09-19T13:08:27;12.65;;;9.30;;
18316;SDS011;9284;52.298;21.164;2023-09-19T13:11:06;16.90;;;9.90;;
18316;SDS011;9284;52.298;21.164;2023-09-19T13:13:40;12.00;;;9.45;;
18316;SDS011;9284;52.298;21.164;2023-09-19T13:16:15;14.05;;;9.38;;
18316;SDS011;9284;52.298;21.164;2023-09-19T13:18:49;13.95;;;9.57;;
18316;SDS011;9284;52.298;21.164;2023-09-19T13:21:28;12.73;;;9.95;;
18316;SDS011;9284;52.298;21.164;2023-09-19T13:24:21;12.52;;;9.55;;
18316;SDS011;9284;52.298;21.164;2023-09-19T13:26:52;13.70;;;9.48;;
18316;SDS011;9284;52.298;21.164;2023-09-19T13:29:21;14.48;;;10.15;;
18316;SDS011;9284;52.298;21.164;2023-09-19T13:31:50;13.30;;;9.70;;
18316;SDS011;9284;52.298;21.164;2023-09-19T13:34:20;15.25;;;10.45;;
18316;SDS011;9284;52.298;21.164;2023-09-19T13:36:49;13.00;;;10.70;;
18316;SDS011;9284;52.298;21.164;2023-09-19T13:39:17;15.15;;;10.00;;
18316;SDS011;9284;52.298;21.164;2023-09-19T13:41:47;14.93;;;10.55;;
18316;SDS011;9284;52.298;21.164;2023-09-19T13:44:16;14.50;;;10.07;;
18316;SDS011;9284;52.298;21.164;2023-09-19T13:46:44;16.13;;;10.95;;
18316;SDS011;9284;52.298;21.164;2023-09-19T13:49:14;16.42;;;11.38;;
18316;SDS011;9284;52.298;21.164;2023-09-19T13:51:46;14.18;;;10.60;;
18316;SDS011;9284;52.298;21.164;2023-09-19T13:54:14;16.45;;;10.80;;
18316;SDS011;9284;52.298;21.164;2023-09-19T13:56:43;15.57;;;10.50;;
18316;SDS011;9284;52.298;21.164;2023-09-19T13:59:13;15.60;;;10.85;;
18316;SDS011;9284;52.298;21.164;2023-09-19T14:01:41;17.15;;;11.30;;
18316;SDS011;9284;52.298;21.164;2023-09-19T14:04:09;15.13;;;10.13;;
18316;SDS011;9284;52.298;21.164;2023-09-19T14:06:41;14.40;;;11.40;;
18316;SDS011;9284;52.298;21.164;2023-09-19T14:09:09;14.07;;;10.45;;
18316;SDS011;9284;52.298;21.164;2023-09-19T14:11:40;14.63;;;11.10;;
18316;SDS011;9284;52.298;21.164;2023-09-19T14:14:08;16.10;;;10.75;;
18316;SDS011;9284;52.298;21.164;2023-09-19T14:16:38;16.55;;;10.93;;
18316;SDS011;9284;52.298;21.164;2023-09-19T14:19:08;14.70;;;10.93;;
18316;SDS011;9284;52.298;21.164;2023-09-19T14:21:37;16.98;;;10.77;;
18316;SDS011;9284;52.298;21.164;2023-09-19T14:24:06;16.60;;;11.10;;
18316;SDS011;9284;52.298;21.164;2023-09-19T14:26:36;21.83;;;13.18;;
18316;SDS011;9284;52.298;21.164;2023-09-19T14:29:04;18.05;;;11.43;;
18316;SDS011;9284;52.298;21.164;2023-09-19T14:31:36;19.88;;;12.25;;
18316;SDS011;9284;52.298;21.164;2023-09-19T14:34:08;16.70;;;11.48;;
18316;SDS011;9284;52.298;21.164;2023-09-19T14:36:37;15.15;;;11.38;;
18316;SDS011;9284;52.298;21.164;2023-09-19T14:39:06;17.40;;;12.30;;
18316;SDS011;9284;52.298;21.164;2023-09-19T14:41:35;17.35;;;12.18;;
18316;SDS011;9284;52.298;21.164;2023-09-19T14:44:04;17.38;;;11.52;;
18316;SDS011;9284;52.298;21.164;2023-09-19T14:46:33;17.80;;;11.93;;
18316;SDS011;9284;52.298;21.164;2023-09-19T14:49:05;17.52;;;11.70;;
18316;SDS011;9284;52.298;21.164;2023-09-19T14:51:35;15.43;;;10.98;;
18316;SDS011;9284;52.298;21.164;2023-09-19T14:54:06;15.40;;;10.68;;
18316;SDS011;9284;52.298;21.164;2023-09-19T14:56:35;15.65;;;11.38;;
18316;SDS011;9284;52.298;21.164;2023-09-19T14:59:03;16.08;;;11.68;;
18316;SDS011;9284;52.298;21.164;2023-09-19T15:01:33;17.50;;;11.75;;
18316;SDS011;9284;52.298;21.164;2023-09-19T15:04:02;17.63;;;12.38;;
18316;SDS011;9284;52.298;21.164;2023-09-19T15:06:32;17.08;;;13.10;;
18316;SDS011;9284;52.298;21.164;2023-09-19T15:09:00;21.27;;;12.50;;
18316;SDS011;9284;52.298;21.164;2023-09-19T15:11:31;15.98;;;12.65;;
18316;SDS011;9284;52.298;21.164;2023-09-19T15:13:59;22.92;;;13.43;;